N MICHIGAN Halfway between North Manitou and Washington Islands (45002)

Conditions for Saturday

Daily
Weekly
Monthly
Marine Data Graph

Marine & Boating Location Search

Enter a coastal zip code for marine weather.

General Information

Location: 45.344 North -86.411 West
Buoy Type: 2.4-meter discus buoy
Buoy Hull: 2.4DV04
Payload: ARES payload
Owned by: NDBC
Windspeed: Measured by obtained from anemometer
Sea Surface: Measured by Intake
Note: For Great Lakes marine forecasts, select: GREAT LAKES FORECASTS

Weather and Wave Data

Time Temp Humidity Wind Dominant Wave Wind Wave Pressure
  Air
(°F)
Water
(°F)
  Dir Speed
(kts)
Speed
(mph)
Period
(sec)
Height
(ft)
Range
(ft)
Period
(sec)
Height
(ft)
Range
(ft)
Atmo.
(in)
Tend.
(in)
20:50 39 53 58 North 17.5 20.1 4 3.61 exactly 3.6 4 3.28 2.46 - 4.10 30.14 +0.03
21:50 38 53 68 North 17.5 20.1 5 3.28 exactly 3.3 5 3.28 2.46 - 4.10 30.15 +0.02
22:50 38 53 62 North 15.6 17.9 4 3.28 exactly 3.3 4 3.28 2.46 - 4.10 30.15 +0.02
23:50 38 53 63 North 15.6 17.9 5 2.95 exactly 3.0 5 3.28 2.46 - 4.10 30.16 +0.02
00:50 38 53 62 NNE 13.6 15.7 4 2.62 exactly 2.6 4 3.28 2.46 - 4.10 30.17 +0.03
01:50 38 53 64 North 11.7 13.4 5 2.62 exactly 2.6 5 3.28 2.46 - 4.10 30.19 +0.04
02:50 37 53 72 North 11.7 13.4 4 2.62 exactly 2.6 4 3.28 2.46 - 4.10 30.19 +0.03
03:50 38 53 63 North 13.6 15.7 4 2.30 exactly 2.3 4 1.64 0.82 - 2.46 30.19 +0.01
04:50 38 53 64 North 15.6 17.9 4 1.97 exactly 2.0 4 1.64 0.82 - 2.46 30.19 -
05:50 38 53 62 North 11.7 13.4 4 1.97 exactly 2.0 4 1.64 0.82 - 2.46 30.21 +0.02
06:50 37 53 65 North 11.7 13.4 4 2.30 exactly 2.3 4 1.64 0.82 - 2.46 30.21 +0.03
07:50 37 53 66 North 11.7 13.4 4 1.97 exactly 2.0 4 1.64 0.82 - 2.46 30.22 +0.03
08:50 37 53 70 North 13.6 15.7 4 2.30 exactly 2.3 4 1.64 0.82 - 2.46 30.23 +0.02
09:50 38 53 68 North 13.6 15.7 4 1.97 exactly 2.0 4 1.64 0.82 - 2.46 30.23 +0.02
10:50 37 53 62 North 9.7 11.2 4 2.30 exactly 2.3 4 1.64 0.82 - 2.46 30.24 +0.02
11:50 37 53 67 NNE 11.7 13.4 4 1.97 exactly 2.0 4 1.64 0.82 - 2.46 30.23 -
12:50 37 53 62 NNE 7.8 8.9 4 1.64 exactly 1.6 4 1.64 0.82 - 2.46 30.24 -
13:50 37 53 64 NW 9.7 11.2 4 1.64 exactly 1.6 4 1.64 0.82 - 2.46 30.24 -
14:50 38 53 59 North 9.7 11.2 4 1.64 exactly 1.6 4 1.64 0.82 - 2.46 30.24 -
15:50 38 53 58 NNW 9.7 11.2 4 1.31 exactly 1.3 4 1.64 0.82 - 2.46 30.23 -
16:50 38 53 57 North 9.7 11.2 3 1.31 exactly 1.3 3 1.64 0.82 - 2.46 30.23 -0.01
17:50 39 53 57 NNW 7.8 8.9 3 0.98 exactly 1.0 3 1.64 0.82 - 2.46 30.22 -0.02
18:50 39 53 57 North 9.7 11.2 3 0.98 exactly 1.0 3 1.64 0.82 - 2.46 30.23 -
19:50 39 53 60 North 11.7 13.4 3 1.31 exactly 1.3 3 1.64 0.82 - 2.46 30.24 +0.01
20:50 39 53 61 North 11.7 13.4 3 1.31 exactly 1.3 3 1.64 0.82 - 2.46 30.23 +0.01
21:50 38 53 65 North 11.7 13.4 3 1.64 exactly 1.6 3 1.64 0.82 - 2.46 30.24 +0.01
22:50 38 53 63 North 9.7 11.2 4 1.64 exactly 1.6 4 1.64 0.82 - 2.46 30.24 -
23:50 38 52 62 NNE 7.8 8.9 4 1.64 exactly 1.6 4 1.64 0.82 - 2.46 30.23 -
00:50 38 52 65 North 9.7 11.2 4 1.31 exactly 1.3 4 1.64 0.82 - 2.46 30.23 -0.01
01:50 38 52 64 North 9.7 11.2 3 1.31 exactly 1.3 3 1.64 0.82 - 2.46 30.23 -
01:50 38 52 66 North 11.7 13.4 4 1.31 exactly 1.3 4 1.64 0.82 - 2.46 30.24 +0.01
02:50 37 52 66 North 9.7 11.2 3 1.31 exactly 1.3 3 1.64 0.82 - 2.46 30.23 -

Detailed Wave Spectra

Time Water Depth Wave Height Spectral Peak Period Average Wave Period Sampling Interval Wave Record
20:00 574 ft 4.10 ft 4.8 sec 4.0 sec 0.6 sec 2400 sec
21:00 574 ft 3.48 ft 4.2 sec 3.9 sec 0.6 sec 2400 sec
22:00 574 ft 3.41 ft 4.8 sec 3.8 sec 0.6 sec 2400 sec
23:00 574 ft 3.35 ft 4.3 sec 3.8 sec 0.6 sec 2400 sec
00:00 574 ft 3.08 ft 4.8 sec 3.9 sec 0.6 sec 2400 sec
01:00 574 ft 2.76 ft 4.2 sec 3.7 sec 0.6 sec 2400 sec
02:00 574 ft 2.56 ft 4.5 sec 3.6 sec 0.6 sec 2400 sec
03:00 574 ft 2.53 ft 4.2 sec 3.5 sec 0.6 sec 2400 sec
04:00 574 ft 2.30 ft 4.2 sec 3.5 sec 0.6 sec 2400 sec
05:00 574 ft 2.07 ft 3.8 sec 3.3 sec 0.6 sec 2400 sec
06:00 574 ft 2.07 ft 3.8 sec 3.3 sec 0.6 sec 2400 sec
07:00 574 ft 2.17 ft 4.0 sec 3.4 sec 0.6 sec 2400 sec
08:00 574 ft 2.00 ft 3.8 sec 3.2 sec 0.6 sec 2400 sec
09:00 574 ft 2.13 ft 3.8 sec 3.3 sec 0.6 sec 2400 sec
10:00 574 ft 2.07 ft 3.8 sec 3.3 sec 0.6 sec 2400 sec
11:00 574 ft 2.23 ft 4.2 sec 3.4 sec 0.6 sec 2400 sec
12:00 574 ft 2.00 ft 3.8 sec 3.3 sec 0.6 sec 2400 sec
13:00 574 ft 1.77 ft 3.7 sec 3.3 sec 0.6 sec 2400 sec
14:00 574 ft 1.57 ft 3.8 sec 3.2 sec 0.6 sec 2400 sec
15:00 574 ft 1.51 ft 3.7 sec 3.2 sec 0.6 sec 2400 sec
16:00 574 ft 1.31 ft 3.7 sec 3.0 sec 0.6 sec 2400 sec
17:00 574 ft 1.18 ft 3.3 sec 2.9 sec 0.6 sec 2400 sec
18:00 574 ft 1.15 ft 3.3 sec 2.9 sec 0.6 sec 2400 sec
19:00 574 ft 1.08 ft 3.2 sec 2.8 sec 0.6 sec 2400 sec
20:00 574 ft 1.35 ft 3.0 sec 2.8 sec 0.6 sec 2400 sec
21:00 574 ft 1.48 ft 3.2 sec 3.0 sec 0.6 sec 2400 sec
22:00 574 ft 1.67 ft 3.4 sec 3.0 sec 0.6 sec 2400 sec
23:00 574 ft 1.67 ft 3.7 sec 3.2 sec 0.6 sec 2400 sec
00:00 574 ft 1.48 ft 3.6 sec 3.1 sec 0.6 sec 2400 sec
01:00 574 ft 1.38 ft 3.6 sec 3.1 sec 0.6 sec 2400 sec
01:00 574 ft 1.38 ft 3.3 sec 3.0 sec 0.6 sec 2400 sec
02:00 574 ft 1.44 ft 3.7 sec 3.0 sec 0.6 sec 2400 sec